Springdale, Canada
Current Conditions -  °F | °C
As of 10:00 PM on Friday 24 Oct 2014 (Local Time) from CYDF Reporting Station
Light Rain Light Rain  
Wind Chill: 32°   Ceiling: 2800
Heat Index: 41°   Visibility: 7mi
Dew Point: 39°   Wind: 20mph
Humidity: 93%   Direction: 40°NE
Pressure: 29.73"   Gusts: 31mph
Location:  49.48°N, 56.1°W
Report Text: CYDF 250000Z 04017G27KT 7SM -RA FEW007 BKN028 OVC088 05/04 A2973 RMK SF2SC5AC1 SLP068
Loading
Personal Weather Stations






























Interactive Weather Map
Tropical Storm Tracking
New forecast layout! Learn more

10-Day Weather Forecast

Advertisements
Track Severe Weather on mobile